createdAt,value
2022-08-28T00:01:22.396Z,3.33
2022-08-28T00:03:54.297Z,3.00
2022-08-28T00:06:27.175Z,2.97
2022-08-28T00:08:59.240Z,3.50
2022-08-28T00:11:34.109Z,3.07
2022-08-28T00:14:06.458Z,3.10
2022-08-28T00:16:37.960Z,3.07
2022-08-28T00:19:11.151Z,2.97
2022-08-28T00:21:44.366Z,2.90
2022-08-28T00:24:16.450Z,3.10
2022-08-28T00:27:05.822Z,3.10
2022-08-28T00:29:37.097Z,2.87
2022-08-28T00:32:10.555Z,2.90
2022-08-28T00:34:41.598Z,3.20
2022-08-28T00:37:13.026Z,2.93
2022-08-28T00:39:44.174Z,2.70
2022-08-28T00:42:19.340Z,2.73
2022-08-28T00:44:51.157Z,2.70
2022-08-28T00:47:27.372Z,2.80
2022-08-28T00:50:00.071Z,2.80
2022-08-28T00:52:31.638Z,2.80
2022-08-28T00:55:05.274Z,2.67
2022-08-28T00:57:42.616Z,2.93
2022-08-28T01:00:17.716Z,2.80
2022-08-28T01:02:49.240Z,2.77
2022-08-28T01:05:20.705Z,3.10
2022-08-28T01:07:53.350Z,2.77
2022-08-28T01:10:27.644Z,3.00
2022-08-28T01:13:01.779Z,3.20
2022-08-28T01:15:36.980Z,2.97
2022-08-28T01:18:10.961Z,2.77
2022-08-28T01:20:48.599Z,2.70
2022-08-28T01:23:30.499Z,3.17
2022-08-28T01:26:11.706Z,2.97
2022-08-28T01:28:44.978Z,3.03
2022-08-28T01:31:18.240Z,3.17
2022-08-28T01:33:50.611Z,3.13
2022-08-28T01:36:22.784Z,2.80
2022-08-28T01:38:56.794Z,2.70
2022-08-28T01:41:30.645Z,2.77
2022-08-28T01:44:01.639Z,2.43
2022-08-28T01:46:33.172Z,2.83
2022-08-28T01:51:49.103Z,3.07
2022-08-28T01:54:23.805Z,2.40
2022-08-28T01:56:58.895Z,2.53
2022-08-28T01:59:30.251Z,2.40
2022-08-28T02:02:01.306Z,2.83
2022-08-28T02:04:34.226Z,2.67
2022-08-28T02:07:06.170Z,2.80
2022-08-28T02:09:37.433Z,3.27
2022-08-28T02:12:11.936Z,2.90
2022-08-28T02:14:45.198Z,2.90
2022-08-28T02:17:17.270Z,3.13
2022-08-28T02:19:49.284Z,2.90
2022-08-28T02:22:20.574Z,3.00
2022-08-28T02:24:52.263Z,3.37
2022-08-28T02:27:25.929Z,2.47
2022-08-28T02:29:57.381Z,2.70
2022-08-28T02:32:29.409Z,2.97
2022-08-28T02:35:01.059Z,3.00
2022-08-28T02:37:32.171Z,2.93
2022-08-28T02:40:04.400Z,2.97
2022-08-28T02:42:37.734Z,3.50
2022-08-28T02:45:13.315Z,3.27
2022-08-28T02:47:45.719Z,3.37
2022-08-28T02:50:20.389Z,3.20
2022-08-28T02:52:51.678Z,3.50
2022-08-28T02:55:23.776Z,3.40
2022-08-28T02:57:57.491Z,3.60
2022-08-28T03:00:30.289Z,3.20
2022-08-28T03:03:02.401Z,3.60
2022-08-28T03:05:34.097Z,3.50
2022-08-28T03:08:05.575Z,3.33
2022-08-28T03:10:36.924Z,3.10
2022-08-28T03:13:11.433Z,3.93
2022-08-28T03:15:58.809Z,3.20
2022-08-28T03:18:33.808Z,3.40
2022-08-28T03:21:05.101Z,3.17
2022-08-28T03:23:36.377Z,3.50
2022-08-28T03:26:09.787Z,3.20
2022-08-28T03:28:45.626Z,3.07
2022-08-28T03:31:19.012Z,3.20
2022-08-28T03:33:51.035Z,3.43
2022-08-28T03:36:25.919Z,3.30
2022-08-28T03:38:59.618Z,3.50
2022-08-28T03:41:32.912Z,3.20
2022-08-28T03:44:09.900Z,3.17
2022-08-28T03:46:42.235Z,3.47
2022-08-28T03:49:14.566Z,3.33
2022-08-28T03:51:46.128Z,3.30
2022-08-28T03:54:19.617Z,3.10
2022-08-28T03:56:50.843Z,3.73
2022-08-28T03:59:26.642Z,3.50
2022-08-28T04:02:02.730Z,3.77
2022-08-28T04:04:34.414Z,3.67
2022-08-28T04:07:06.000Z,3.17
2022-08-28T04:09:36.897Z,3.20
2022-08-28T04:12:09.133Z,2.90
2022-08-28T04:14:44.573Z,3.57
2022-08-28T04:17:17.761Z,4.07
2022-08-28T04:19:49.417Z,3.67
2022-08-28T04:22:21.491Z,3.73
2022-08-28T04:24:55.259Z,3.50
2022-08-28T04:27:27.719Z,3.63
2022-08-28T04:30:01.167Z,3.67
2022-08-28T04:32:32.270Z,3.60
2022-08-28T04:35:04.032Z,3.80
2022-08-28T04:37:35.823Z,4.23
2022-08-28T04:40:09.811Z,3.93
2022-08-28T04:42:44.039Z,3.87
2022-08-28T04:45:17.477Z,3.27
2022-08-28T04:47:49.265Z,3.90
2022-08-28T04:50:21.250Z,3.77
2022-08-28T04:52:54.297Z,3.77
2022-08-28T04:55:45.105Z,4.00
2022-08-28T04:58:18.171Z,3.50
2022-08-28T05:00:58.276Z,3.77
2022-08-28T05:03:30.262Z,3.93
2022-08-28T05:06:01.850Z,3.50
2022-08-28T05:08:33.973Z,3.60
2022-08-28T05:11:33.448Z,3.67
2022-08-28T05:14:08.395Z,4.03
2022-08-28T05:16:48.558Z,3.83
2022-08-28T05:19:20.669Z,4.00
2022-08-28T05:21:52.081Z,3.97
2022-08-28T05:24:24.005Z,4.20
2022-08-28T05:26:56.552Z,4.10
2022-08-28T05:29:28.924Z,4.20
2022-08-28T05:32:02.178Z,3.60
2022-08-28T05:34:33.677Z,3.67
2022-08-28T05:37:04.925Z,3.33
2022-08-28T05:39:36.188Z,4.00
2022-08-28T05:42:07.851Z,3.70
2022-08-28T05:44:39.686Z,3.83
2022-08-28T05:47:14.406Z,3.83
2022-08-28T05:49:46.116Z,3.97
2022-08-28T05:52:18.390Z,3.90
2022-08-28T05:54:50.077Z,3.63
2022-08-28T05:57:22.889Z,3.80
2022-08-28T05:59:54.672Z,4.13
2022-08-28T06:02:28.709Z,3.57
2022-08-28T06:05:00.960Z,3.70
2022-08-28T06:07:33.474Z,3.73
2022-08-28T06:10:05.117Z,3.70
2022-08-28T06:12:37.348Z,3.60
2022-08-28T06:15:09.525Z,3.57
2022-08-28T06:17:43.474Z,3.40
2022-08-28T06:20:15.514Z,3.30
2022-08-28T06:22:46.795Z,3.70
2022-08-28T06:25:18.749Z,3.70
2022-08-28T06:27:50.405Z,4.10
2022-08-28T06:30:22.868Z,3.30
2022-08-28T06:32:58.001Z,3.90
2022-08-28T06:35:29.685Z,3.67
2022-08-28T06:38:01.590Z,3.57
2022-08-28T06:40:33.765Z,4.30
2022-08-28T06:43:04.657Z,4.07
2022-08-28T06:45:36.065Z,3.33
2022-08-28T06:48:10.221Z,3.23
2022-08-28T06:50:45.500Z,3.73
2022-08-28T06:53:18.439Z,3.93
2022-08-28T06:55:59.135Z,3.87
2022-08-28T06:58:31.074Z,3.80
2022-08-28T07:01:14.251Z,3.80
2022-08-28T07:03:49.632Z,3.60
2022-08-28T07:06:21.444Z,4.10
2022-08-28T07:08:53.819Z,3.83
2022-08-28T07:11:27.728Z,3.77
2022-08-28T07:14:00.002Z,3.77
2022-08-28T07:16:33.371Z,4.00
2022-08-28T07:19:07.321Z,3.40
2022-08-28T07:21:39.358Z,3.70
2022-08-28T07:24:11.633Z,3.53
2022-08-28T07:26:45.149Z,3.80
2022-08-28T07:29:17.446Z,3.97
2022-08-28T07:31:50.126Z,4.40
2022-08-28T07:34:26.849Z,4.27
2022-08-28T07:37:04.754Z,3.60
2022-08-28T07:39:36.104Z,3.83
2022-08-28T07:42:07.593Z,4.07
2022-08-28T07:44:52.008Z,4.17
2022-08-28T07:47:23.698Z,4.23
2022-08-28T07:49:57.959Z,4.40
2022-08-28T07:52:31.134Z,4.10
2022-08-28T07:55:02.149Z,3.33
2022-08-28T07:57:33.275Z,3.30
2022-08-28T08:00:04.767Z,3.97
2022-08-28T08:02:36.273Z,4.17
2022-08-28T08:05:10.130Z,4.20
2022-08-28T08:07:43.893Z,4.40
2022-08-28T08:10:20.550Z,4.07
2022-08-28T08:12:52.384Z,4.17
2022-08-28T08:15:23.501Z,3.67
2022-08-28T08:17:54.489Z,3.87
2022-08-28T08:20:29.648Z,3.87
2022-08-28T08:23:00.682Z,3.80
2022-08-28T08:25:31.717Z,3.77
2022-08-28T08:28:05.900Z,4.57
2022-08-28T08:30:37.344Z,4.20
2022-08-28T08:33:08.585Z,4.27
2022-08-28T08:35:42.210Z,4.10
2022-08-28T08:38:13.498Z,4.47
2022-08-28T08:40:45.035Z,4.13
2022-08-28T08:43:19.444Z,3.80
2022-08-28T08:45:53.526Z,4.67
2022-08-28T08:48:30.934Z,4.90
2022-08-28T08:51:07.379Z,4.37
2022-08-28T08:53:46.250Z,4.70
2022-08-28T08:56:22.809Z,4.60
2022-08-28T08:58:58.525Z,4.50
2022-08-28T09:01:34.596Z,4.50
2022-08-28T09:04:15.823Z,4.53
2022-08-28T09:06:54.575Z,4.53
2022-08-28T09:09:33.550Z,4.57
2022-08-28T09:12:07.022Z,4.40
2022-08-28T09:14:51.003Z,4.63
2022-08-28T09:17:26.345Z,4.70
2022-08-28T09:19:58.215Z,4.30
2022-08-28T09:22:31.843Z,4.57
2022-08-28T09:25:03.028Z,4.57
2022-08-28T09:27:38.814Z,4.67
2022-08-28T09:30:13.826Z,4.50
2022-08-28T09:32:46.341Z,4.23
2022-08-28T09:35:28.772Z,4.90
2022-08-28T09:38:21.393Z,4.90
2022-08-28T09:41:12.808Z,5.03
2022-08-28T09:43:50.035Z,4.57
2022-08-28T09:46:26.122Z,4.77
2022-08-28T09:49:12.714Z,5.10
2022-08-28T09:51:45.822Z,4.70
2022-08-28T09:54:25.636Z,4.70
2022-08-28T09:56:58.027Z,4.60
2022-08-28T09:59:31.004Z,4.57
2022-08-28T10:02:14.126Z,4.83
2022-08-28T10:05:02.261Z,4.60
2022-08-28T10:07:42.280Z,5.23
2022-08-28T10:10:31.373Z,5.07
2022-08-28T10:13:12.277Z,5.70
2022-08-28T10:16:02.497Z,4.93
2022-08-28T10:18:42.244Z,5.83
2022-08-28T10:21:21.878Z,5.23
2022-08-28T10:24:14.128Z,5.30
2022-08-28T10:26:55.054Z,4.83
2022-08-28T10:29:36.398Z,4.73
2022-08-28T10:32:24.001Z,4.67
2022-08-28T10:35:06.824Z,4.73
2022-08-28T10:37:48.004Z,4.60
2022-08-28T10:40:24.369Z,4.90
2022-08-28T10:43:08.039Z,5.27
2022-08-28T10:45:41.485Z,5.37
2022-08-28T10:48:22.435Z,6.00
2022-08-28T10:50:57.891Z,4.93
2022-08-28T10:53:35.595Z,5.13
2022-08-28T10:56:10.904Z,5.00
2022-08-28T10:58:44.989Z,4.87
2022-08-28T11:01:18.474Z,4.93
2022-08-28T11:03:52.419Z,4.50
2022-08-28T11:06:29.743Z,4.77
2022-08-28T11:09:23.681Z,4.60
2022-08-28T11:12:01.561Z,4.80
2022-08-28T11:14:48.493Z,4.53
2022-08-28T11:17:44.403Z,4.37
2022-08-28T11:20:19.602Z,5.03
2022-08-28T11:22:56.003Z,4.87
2022-08-28T11:25:32.577Z,4.97
2022-08-28T11:28:21.137Z,4.73
2022-08-28T11:31:31.764Z,4.73
2022-08-28T11:34:03.853Z,4.63
2022-08-28T11:37:03.638Z,4.83
2022-08-28T11:39:34.846Z,4.90
2022-08-28T11:42:39.434Z,4.93
2022-08-28T11:45:21.345Z,5.10
2022-08-28T11:48:09.105Z,5.03
2022-08-28T11:50:56.644Z,4.80
2022-08-28T11:53:41.560Z,5.60
2022-08-28T11:56:48.272Z,4.13
2022-08-28T11:59:48.406Z,4.90
2022-08-28T12:03:02.181Z,4.60
2022-08-28T12:06:01.392Z,4.57
2022-08-28T12:09:11.601Z,4.93
2022-08-28T12:11:57.503Z,4.67
2022-08-28T12:15:04.993Z,4.80
2022-08-28T12:17:56.092Z,4.63
2022-08-28T12:20:39.665Z,5.40
2022-08-28T12:23:38.738Z,5.50
2022-08-28T12:26:13.209Z,4.80
2022-08-28T12:28:51.693Z,5.67
2022-08-28T12:32:17.188Z,5.23
2022-08-28T12:35:10.914Z,5.37
2022-08-28T12:37:52.357Z,6.10
2022-08-28T12:40:29.826Z,5.97
2022-08-28T12:43:02.865Z,6.20
2022-08-28T12:45:38.625Z,6.30
2022-08-28T12:48:18.165Z,6.47
2022-08-28T12:50:49.479Z,5.83
2022-08-28T12:53:21.519Z,6.20
2022-08-28T12:55:55.147Z,5.83
2022-08-28T12:58:35.079Z,5.93
2022-08-28T13:01:10.064Z,5.83
2022-08-28T13:03:53.626Z,5.57
2022-08-28T13:06:29.221Z,5.73
2022-08-28T13:09:06.030Z,6.53
2022-08-28T13:11:41.445Z,5.73
2022-08-28T13:14:44.845Z,5.67
2022-08-28T13:17:18.514Z,5.93
2022-08-28T13:20:04.431Z,5.60
2022-08-28T13:22:38.997Z,6.17
2022-08-28T13:25:11.517Z,6.20
2022-08-28T13:27:49.588Z,5.23
2022-08-28T13:30:28.242Z,6.57
2022-08-28T13:33:01.531Z,6.13
2022-08-28T13:35:37.985Z,6.10
2022-08-28T13:38:12.361Z,6.47
2022-08-28T13:40:58.441Z,5.93
2022-08-28T13:43:47.932Z,6.10
2022-08-28T13:46:19.413Z,5.83
2022-08-28T13:48:50.492Z,6.73
2022-08-28T13:51:30.001Z,5.60
2022-08-28T13:54:01.329Z,6.03
2022-08-28T13:56:32.535Z,6.40
2022-08-28T13:59:06.362Z,5.53
2022-08-28T14:01:50.657Z,5.47
2022-08-28T14:04:22.133Z,5.43
2022-08-28T14:06:55.084Z,5.47
2022-08-28T14:09:27.928Z,6.00
2022-08-28T14:11:58.920Z,5.43
2022-08-28T14:14:33.130Z,5.63
2022-08-28T14:17:04.685Z,5.00
2022-08-28T14:19:35.982Z,5.70
2022-08-28T14:22:07.514Z,6.10
2022-08-28T14:24:39.280Z,5.03
2022-08-28T14:27:10.984Z,5.37
2022-08-28T14:29:44.338Z,6.10
2022-08-28T14:32:16.099Z,5.77
2022-08-28T14:34:48.472Z,4.90
2022-08-28T14:37:20.101Z,5.23
2022-08-28T14:39:51.568Z,4.67
2022-08-28T14:42:22.910Z,5.40
2022-08-28T14:44:55.595Z,5.67
2022-08-28T14:47:28.022Z,5.00
2022-08-28T14:49:59.193Z,5.70
2022-08-28T14:52:32.611Z,5.47
2022-08-28T14:55:03.833Z,5.47
2022-08-28T14:57:36.070Z,5.00
2022-08-28T15:00:16.146Z,4.80
2022-08-28T15:02:49.556Z,5.10
2022-08-28T15:05:26.641Z,4.73
2022-08-28T15:07:57.744Z,4.60
2022-08-28T15:10:28.712Z,4.57
2022-08-28T15:12:59.706Z,4.40
2022-08-28T15:15:33.762Z,4.40
2022-08-28T15:18:05.141Z,4.23
2022-08-28T15:20:41.679Z,4.07
2022-08-28T15:23:13.976Z,3.80
2022-08-28T15:25:45.788Z,4.53
2022-08-28T15:28:16.948Z,4.17
2022-08-28T15:30:57.722Z,3.90
2022-08-28T15:33:31.809Z,4.93
2022-08-28T15:36:03.032Z,4.10
2022-08-28T15:38:54.743Z,3.73
2022-08-28T15:41:26.513Z,3.73
2022-08-28T15:44:01.687Z,4.20
2022-08-28T15:46:38.024Z,3.80
2022-08-28T15:49:10.362Z,4.03
2022-08-28T15:51:41.387Z,3.93
2022-08-28T15:54:13.282Z,3.40
2022-08-28T15:56:45.044Z,3.40
2022-08-28T15:59:16.905Z,4.10
2022-08-28T16:01:50.822Z,3.87
2022-08-28T16:04:23.004Z,3.70
2022-08-28T16:07:00.359Z,3.47
2022-08-28T16:09:32.053Z,3.67
2022-08-28T16:12:03.555Z,3.23
2022-08-28T16:14:35.529Z,4.00
2022-08-28T16:17:11.148Z,3.37
2022-08-28T16:19:45.275Z,3.60
2022-08-28T16:22:17.944Z,3.50
2022-08-28T16:24:49.645Z,3.63
2022-08-28T16:27:21.508Z,3.97
2022-08-28T16:29:53.085Z,3.40
2022-08-28T16:32:27.271Z,3.37
2022-08-28T16:34:58.536Z,3.23
2022-08-28T16:37:37.758Z,3.73
2022-08-28T16:40:14.762Z,3.63
2022-08-28T16:42:51.382Z,3.53
2022-08-28T16:45:23.608Z,4.13
2022-08-28T16:47:57.029Z,3.17
2022-08-28T16:50:32.709Z,3.63
2022-08-28T16:53:07.066Z,3.67
2022-08-28T16:55:39.384Z,3.53
2022-08-28T16:58:14.980Z,3.90
2022-08-28T17:00:52.795Z,3.80
2022-08-28T17:03:30.543Z,3.87
2022-08-28T17:06:03.187Z,3.80
2022-08-28T17:08:34.434Z,3.87
2022-08-28T17:11:08.056Z,3.67
2022-08-28T17:13:40.113Z,3.53
2022-08-28T17:16:12.068Z,3.53
2022-08-28T17:18:47.481Z,4.50
2022-08-28T17:21:39.405Z,4.27
2022-08-28T17:24:13.476Z,3.70
2022-08-28T17:26:45.525Z,3.87
2022-08-28T17:29:17.177Z,3.17
2022-08-28T17:31:50.749Z,3.93
2022-08-28T17:34:31.294Z,3.57
2022-08-28T17:37:02.964Z,4.00
2022-08-28T17:39:34.486Z,3.93
2022-08-28T17:42:05.838Z,4.40
2022-08-28T17:44:37.737Z,3.80
2022-08-28T17:47:08.962Z,3.77
2022-08-28T17:49:42.664Z,3.90
2022-08-28T17:52:15.327Z,4.00
2022-08-28T17:54:46.697Z,4.17
2022-08-28T17:57:17.781Z,3.80
2022-08-28T17:59:49.495Z,3.93
2022-08-28T18:02:20.081Z,3.60
2022-08-28T18:04:53.427Z,3.83
2022-08-28T18:07:24.739Z,4.00
2022-08-28T18:09:56.270Z,3.77
2022-08-28T18:12:28.187Z,4.10
2022-08-28T18:14:59.504Z,3.97
2022-08-28T18:17:31.149Z,4.40
2022-08-28T18:20:04.785Z,4.13
2022-08-28T18:22:36.681Z,4.50
2022-08-28T18:25:08.461Z,3.70
2022-08-28T18:27:39.687Z,3.90
2022-08-28T18:30:11.694Z,4.23
2022-08-28T18:32:43.352Z,4.23
2022-08-28T18:35:16.759Z,4.33
2022-08-28T18:37:48.337Z,4.00
2022-08-28T18:40:23.002Z,4.00
2022-08-28T18:42:54.622Z,4.00
2022-08-28T18:45:25.790Z,4.70
2022-08-28T18:47:56.620Z,4.30
2022-08-28T18:50:34.228Z,4.40
2022-08-28T18:53:06.002Z,4.60
2022-08-28T18:55:37.810Z,3.47
2022-08-28T18:58:15.154Z,3.63
2022-08-28T19:00:46.956Z,4.00
2022-08-28T19:03:18.769Z,3.50
2022-08-28T19:05:52.976Z,3.87
2022-08-28T19:08:24.971Z,4.40
2022-08-28T19:10:56.868Z,4.57
2022-08-28T19:13:28.929Z,3.90
2022-08-28T19:16:00.322Z,4.17
2022-08-28T19:18:32.268Z,4.10
2022-08-28T19:21:22.746Z,4.83
2022-08-28T19:23:56.504Z,3.90
2022-08-28T19:26:28.653Z,3.70
2022-08-28T19:29:00.559Z,3.80
2022-08-28T19:31:32.621Z,3.70
2022-08-28T19:34:03.864Z,3.93
2022-08-28T19:36:39.423Z,3.97
2022-08-28T19:39:10.859Z,4.37
2022-08-28T19:41:42.796Z,4.23
2022-08-28T19:44:15.709Z,4.03
2022-08-28T19:46:47.234Z,3.90
2022-08-28T19:49:18.753Z,3.80
2022-08-28T19:51:52.739Z,3.97
2022-08-28T19:54:23.932Z,3.70
2022-08-28T19:56:55.134Z,3.40
2022-08-28T19:59:27.239Z,3.77
2022-08-28T20:02:00.497Z,3.77
2022-08-28T20:04:31.882Z,3.80
2022-08-28T20:07:05.879Z,3.50
2022-08-28T20:09:37.166Z,3.60
2022-08-28T20:12:09.300Z,3.60
2022-08-28T20:14:43.596Z,3.53
2022-08-28T20:17:16.862Z,3.57
2022-08-28T20:19:48.730Z,3.50
2022-08-28T20:22:22.391Z,3.17
2022-08-28T20:24:54.222Z,3.33
2022-08-28T20:27:25.118Z,3.70
2022-08-28T20:29:56.552Z,3.60
2022-08-28T20:32:29.345Z,3.23
2022-08-28T20:35:00.574Z,3.50
2022-08-28T20:37:44.636Z,3.40
2022-08-28T20:40:21.486Z,3.37
2022-08-28T20:42:53.629Z,3.20
2022-08-28T20:45:25.645Z,3.30
2022-08-28T20:47:56.857Z,3.43
2022-08-28T20:50:28.360Z,3.20
2022-08-28T20:53:03.691Z,2.63
2022-08-28T20:55:36.234Z,2.70
2022-08-28T20:58:07.966Z,2.93
2022-08-28T21:00:39.389Z,2.73
2022-08-28T21:03:13.194Z,2.80
2022-08-28T21:05:47.760Z,2.73
2022-08-28T21:08:26.945Z,2.77
2022-08-28T21:10:58.654Z,3.20
2022-08-28T21:13:30.118Z,2.93
2022-08-28T21:16:02.202Z,2.40
2022-08-28T21:18:35.187Z,2.90
2022-08-28T21:21:08.113Z,3.07
2022-08-28T21:23:44.593Z,2.77
2022-08-28T21:26:16.234Z,3.73
2022-08-28T21:28:48.489Z,2.90
2022-08-28T21:31:21.551Z,3.17
2022-08-28T21:33:52.574Z,3.37
2022-08-28T21:36:24.303Z,3.23
2022-08-28T21:38:57.592Z,2.93
2022-08-28T21:41:29.048Z,3.30
2022-08-28T21:44:00.425Z,2.83
2022-08-28T21:46:31.786Z,3.10
2022-08-28T21:49:03.243Z,2.60
2022-08-28T21:51:34.612Z,3.50
2022-08-28T21:54:08.512Z,2.90
2022-08-28T21:56:39.542Z,3.10
2022-08-28T21:59:10.759Z,3.30
2022-08-28T22:01:42.478Z,3.30
2022-08-28T22:04:14.220Z,3.30
2022-08-28T22:06:46.304Z,3.03
2022-08-28T22:09:19.522Z,3.23
2022-08-28T22:11:51.133Z,3.23
2022-08-28T22:14:22.738Z,3.43
2022-08-28T22:16:54.029Z,2.90
2022-08-28T22:19:25.454Z,2.83
2022-08-28T22:22:13.537Z,3.63
2022-08-28T22:24:48.182Z,3.40
2022-08-28T22:30:01.885Z,3.67
2022-08-28T22:32:33.632Z,3.27
2022-08-28T22:35:04.945Z,3.07
2022-08-28T22:37:37.092Z,2.90
2022-08-28T22:40:13.592Z,3.50
2022-08-28T22:42:46.095Z,3.17
2022-08-28T22:45:17.890Z,3.13
2022-08-28T22:47:50.645Z,2.73
2022-08-28T22:50:22.165Z,3.20
2022-08-28T22:52:54.167Z,3.70
2022-08-28T22:55:28.213Z,3.13
2022-08-28T22:58:01.641Z,3.00
2022-08-28T23:00:34.480Z,2.97
2022-08-28T23:03:06.810Z,2.80
2022-08-28T23:05:37.734Z,2.63
2022-08-28T23:08:08.928Z,3.43
2022-08-28T23:10:58.477Z,3.03
2022-08-28T23:13:30.567Z,3.00
2022-08-28T23:16:01.874Z,2.70
2022-08-28T23:18:51.679Z,3.00
2022-08-28T23:21:27.595Z,2.90
2022-08-28T23:24:00.078Z,2.93
2022-08-28T23:26:35.068Z,2.70
2022-08-28T23:29:07.249Z,2.40
2022-08-28T23:31:39.524Z,2.30
2022-08-28T23:34:11.000Z,2.43
2022-08-28T23:36:43.376Z,1.73
2022-08-28T23:39:15.695Z,2.00
2022-08-28T23:41:49.285Z,1.70
2022-08-28T23:44:21.330Z,1.50
2022-08-28T23:46:51.980Z,1.57
2022-08-28T23:49:26.847Z,1.27
2022-08-28T23:51:57.962Z,1.20
2022-08-28T23:54:31.625Z,1.13
2022-08-28T23:57:05.939Z,1.10
2022-08-28T23:59:37.222Z,1.10
